createdAt,value
2023-05-23T00:01:07.259Z,1.48
2023-05-23T00:03:34.911Z,1.90
2023-05-23T00:06:02.611Z,1.50
2023-05-23T00:08:29.428Z,1.55
2023-05-23T00:10:56.248Z,1.65
2023-05-23T00:13:23.028Z,2.00
2023-05-23T00:15:49.889Z,2.13
2023-05-23T00:18:16.784Z,1.58
2023-05-23T00:20:43.733Z,1.80
2023-05-23T00:23:13.848Z,1.55
2023-05-23T00:25:41.383Z,2.10
2023-05-23T00:28:08.525Z,1.75
2023-05-23T00:30:35.382Z,1.55
2023-05-23T00:33:02.500Z,2.03
2023-05-23T00:35:29.269Z,2.17
2023-05-23T00:37:56.568Z,1.50
2023-05-23T00:40:23.597Z,2.03
2023-05-23T00:42:50.634Z,1.92
2023-05-23T00:45:18.120Z,2.03
2023-05-23T00:47:47.018Z,1.63
2023-05-23T00:50:15.762Z,1.67
2023-05-23T00:52:48.086Z,1.85
2023-05-23T00:55:15.621Z,1.85
2023-05-23T00:57:44.468Z,1.60
2023-05-23T01:00:13.366Z,1.60
2023-05-23T01:02:45.118Z,1.58
2023-05-23T01:05:14.517Z,1.83
2023-05-23T01:07:41.753Z,2.17
2023-05-23T01:10:10.114Z,1.75
2023-05-23T01:12:44.609Z,1.83
2023-05-23T01:15:15.441Z,2.00
2023-05-23T01:17:52.162Z,2.03
2023-05-23T01:20:22.728Z,1.55
2023-05-23T01:23:01.523Z,1.80
2023-05-23T01:25:28.288Z,1.85
2023-05-23T01:27:59.240Z,1.85
2023-05-23T01:30:30.710Z,2.08
2023-05-23T01:32:59.366Z,1.90
2023-05-23T01:35:27.520Z,2.20
2023-05-23T01:37:57.634Z,1.98
2023-05-23T01:40:26.258Z,2.25
2023-05-23T01:42:55.707Z,1.70
2023-05-23T01:45:26.568Z,1.85
2023-05-23T01:47:54.756Z,2.08
2023-05-23T01:50:23.102Z,2.00
2023-05-23T01:52:50.730Z,2.03
2023-05-23T01:55:22.863Z,2.08
2023-05-23T01:57:56.402Z,2.00
2023-05-23T02:00:24.269Z,1.85
2023-05-23T02:02:51.401Z,1.80
2023-05-23T02:05:18.393Z,2.08
2023-05-23T02:07:45.137Z,2.10
2023-05-23T02:10:12.056Z,2.17
2023-05-23T02:12:38.786Z,2.17
2023-05-23T02:15:05.941Z,2.40
2023-05-23T02:17:32.807Z,2.25
2023-05-23T02:19:59.597Z,2.00
2023-05-23T02:22:26.417Z,1.77
2023-05-23T02:24:53.253Z,1.73
2023-05-23T02:27:20.013Z,2.03
2023-05-23T02:29:46.767Z,2.45
2023-05-23T02:32:13.584Z,2.40
2023-05-23T02:34:40.578Z,2.15
2023-05-23T02:37:08.358Z,2.08
2023-05-23T02:39:36.625Z,2.28
2023-05-23T02:42:04.720Z,2.40
2023-05-23T02:44:31.806Z,1.95
2023-05-23T02:46:58.668Z,2.22
2023-05-23T02:49:25.691Z,2.38
2023-05-23T02:51:52.574Z,2.38
2023-05-23T02:54:19.314Z,2.13
2023-05-23T02:56:46.644Z,2.10
2023-05-23T02:59:13.827Z,2.45
2023-05-23T03:01:40.756Z,2.10
2023-05-23T03:04:07.731Z,1.90
2023-05-23T03:06:36.694Z,2.10
2023-05-23T03:09:04.715Z,2.75
2023-05-23T03:11:31.451Z,2.17
2023-05-23T03:13:58.124Z,2.10
2023-05-23T03:16:24.938Z,1.92
2023-05-23T03:18:51.744Z,1.92
2023-05-23T03:21:18.621Z,2.30
2023-05-23T03:23:45.498Z,2.08
2023-05-23T03:26:12.246Z,2.45
2023-05-23T03:28:39.012Z,2.05
2023-05-23T03:31:05.968Z,2.15
2023-05-23T03:33:33.013Z,2.50
2023-05-23T03:35:59.852Z,2.65
2023-05-23T03:38:27.725Z,2.13
2023-05-23T03:40:54.505Z,2.20
2023-05-23T03:43:21.400Z,2.30
2023-05-23T03:45:48.322Z,2.45
2023-05-23T03:48:15.904Z,2.40
2023-05-23T03:50:42.924Z,2.50
2023-05-23T03:53:09.688Z,2.42
2023-05-23T03:55:36.509Z,2.33
2023-05-23T03:58:03.327Z,2.58
2023-05-23T04:00:30.072Z,2.08
2023-05-23T04:02:57.224Z,2.22
2023-05-23T04:05:24.102Z,2.20
2023-05-23T04:07:51.614Z,2.20
2023-05-23T04:10:18.596Z,1.67
2023-05-23T04:12:45.747Z,2.85
2023-05-23T04:15:12.625Z,2.72
2023-05-23T04:17:39.476Z,2.35
2023-05-23T04:20:09.665Z,2.05
2023-05-23T04:22:36.760Z,1.92
2023-05-23T04:25:04.041Z,2.10
2023-05-23T04:27:30.970Z,2.00
2023-05-23T04:29:58.296Z,2.13
2023-05-23T04:32:25.477Z,2.05
2023-05-23T04:34:52.727Z,2.85
2023-05-23T04:37:25.918Z,2.00
2023-05-23T04:39:53.130Z,2.10
2023-05-23T04:42:24.763Z,2.03
2023-05-23T04:44:52.719Z,2.35
2023-05-23T04:47:19.536Z,2.03
2023-05-23T04:49:46.587Z,2.00
2023-05-23T04:52:13.434Z,2.30
2023-05-23T04:54:44.665Z,2.03
2023-05-23T04:57:12.430Z,2.10
2023-05-23T04:59:39.536Z,2.20
2023-05-23T05:02:06.809Z,2.40
2023-05-23T05:04:33.630Z,2.20
2023-05-23T05:07:00.580Z,2.15
2023-05-23T05:09:27.517Z,2.20
2023-05-23T05:11:54.352Z,2.30
2023-05-23T05:14:21.214Z,2.53
2023-05-23T05:16:50.137Z,2.17
2023-05-23T05:19:17.171Z,2.67
2023-05-23T05:21:43.962Z,2.45
2023-05-23T05:24:11.095Z,2.45
2023-05-23T05:26:37.945Z,2.38
2023-05-23T05:29:04.798Z,2.40
2023-05-23T05:31:31.614Z,2.10
2023-05-23T05:33:58.793Z,2.67
2023-05-23T05:36:25.913Z,2.90
2023-05-23T05:38:53.407Z,2.42
2023-05-23T05:41:20.386Z,2.85
2023-05-23T05:43:47.491Z,2.80
2023-05-23T05:46:14.245Z,3.20
2023-05-23T05:48:41.006Z,3.38
2023-05-23T05:51:07.911Z,2.95
2023-05-23T05:53:34.870Z,3.00
2023-05-23T05:56:02.651Z,3.10
2023-05-23T05:58:29.374Z,2.80
2023-05-23T06:00:56.416Z,2.63
2023-05-23T06:03:24.617Z,2.75
2023-05-23T06:05:51.627Z,2.80
2023-05-23T06:08:18.365Z,2.85
2023-05-23T06:10:45.288Z,2.63
2023-05-23T06:13:12.101Z,3.10
2023-05-23T06:15:51.259Z,2.90
2023-05-23T06:18:18.088Z,2.90
2023-05-23T06:20:44.815Z,3.30
2023-05-23T06:23:37.181Z,3.10
2023-05-23T06:26:08.074Z,3.35
2023-05-23T06:28:34.906Z,3.30
2023-05-23T06:31:01.672Z,3.30
2023-05-23T06:33:28.424Z,3.10
2023-05-23T06:35:55.221Z,3.67
2023-05-23T06:38:22.154Z,3.85
2023-05-23T06:40:48.883Z,3.13
2023-05-23T06:43:15.893Z,3.83
2023-05-23T06:45:42.823Z,4.22
2023-05-23T06:48:09.677Z,4.00
2023-05-23T06:50:36.476Z,3.90
2023-05-23T06:53:03.279Z,3.63
2023-05-23T06:55:30.476Z,3.78
2023-05-23T06:57:57.472Z,3.55
2023-05-23T07:00:24.149Z,3.85
2023-05-23T07:02:50.968Z,5.30
2023-05-23T07:05:18.104Z,3.78
2023-05-23T07:07:45.026Z,3.92
2023-05-23T07:10:11.928Z,4.00
2023-05-23T07:12:38.836Z,4.03
2023-05-23T07:15:06.133Z,4.05
2023-05-23T07:17:33.003Z,3.83
2023-05-23T07:19:59.811Z,3.53
2023-05-23T07:22:26.991Z,3.88
2023-05-23T07:24:53.790Z,5.00
2023-05-23T07:27:20.920Z,4.03
2023-05-23T07:29:47.803Z,4.40
2023-05-23T07:32:14.976Z,4.72
2023-05-23T07:34:42.118Z,4.28
2023-05-23T07:37:09.023Z,4.75
2023-05-23T07:39:35.813Z,4.72
2023-05-23T07:42:02.690Z,4.28
2023-05-23T07:44:29.431Z,4.25
2023-05-23T07:46:56.342Z,3.88
2023-05-23T07:49:23.515Z,3.67
2023-05-23T07:51:50.294Z,3.80
2023-05-23T07:54:17.147Z,3.90
2023-05-23T07:56:44.197Z,3.83
2023-05-23T07:59:11.005Z,4.10
2023-05-23T08:01:37.796Z,3.90
2023-05-23T08:04:05.046Z,3.95
2023-05-23T08:06:32.551Z,3.58
2023-05-23T08:08:59.389Z,3.78
2023-05-23T08:11:27.509Z,4.03
2023-05-23T08:13:54.369Z,3.97
2023-05-23T08:16:21.637Z,4.10
2023-05-23T08:18:48.649Z,4.80
2023-05-23T08:21:15.456Z,4.90
2023-05-23T08:23:42.175Z,5.78
2023-05-23T08:26:09.310Z,5.57
2023-05-23T08:28:36.108Z,4.95
2023-05-23T08:31:02.886Z,5.47
2023-05-23T08:33:29.616Z,5.13
2023-05-23T08:35:56.394Z,5.07
2023-05-23T08:38:24.067Z,4.93
2023-05-23T08:40:54.635Z,4.55
2023-05-23T08:43:21.485Z,5.13
2023-05-23T08:45:51.129Z,4.82
2023-05-23T08:48:20.321Z,5.13
2023-05-23T08:50:49.241Z,5.28
2023-05-23T08:53:20.660Z,6.43
2023-05-23T08:55:48.859Z,6.88
2023-05-23T08:58:15.782Z,7.78
2023-05-23T09:00:43.797Z,9.82
2023-05-23T09:03:12.398Z,11.45
2023-05-23T09:05:39.479Z,11.25
2023-05-23T09:08:06.387Z,10.82
2023-05-23T09:10:33.148Z,10.10
2023-05-23T09:13:00.035Z,9.30
2023-05-23T09:15:27.369Z,8.60
2023-05-23T09:17:59.313Z,7.35
2023-05-23T09:20:26.284Z,5.85
2023-05-23T09:22:55.257Z,6.18
2023-05-23T09:25:22.264Z,5.07
2023-05-23T09:27:48.974Z,4.32
2023-05-23T09:30:17.663Z,4.65
2023-05-23T09:32:58.225Z,4.35
2023-05-23T09:35:24.994Z,3.95
2023-05-23T09:37:56.078Z,4.45
2023-05-23T09:40:23.000Z,4.60
2023-05-23T09:42:51.413Z,4.45
2023-05-23T09:45:18.252Z,3.97
2023-05-23T09:47:52.537Z,4.50
2023-05-23T09:50:20.271Z,4.88
2023-05-23T09:52:47.281Z,5.15
2023-05-23T09:55:14.797Z,4.97
2023-05-23T09:57:42.960Z,4.32
2023-05-23T10:00:11.475Z,4.10
2023-05-23T10:03:14.483Z,3.85
2023-05-23T10:05:46.470Z,4.32
2023-05-23T10:08:20.089Z,3.70
2023-05-23T10:11:11.725Z,4.18
2023-05-23T10:13:42.803Z,3.97
2023-05-23T10:16:31.404Z,3.83
2023-05-23T10:19:06.070Z,3.63
2023-05-23T10:21:56.840Z,4.00
2023-05-23T10:24:25.267Z,4.13
2023-05-23T10:26:52.866Z,4.43
2023-05-23T10:29:21.480Z,4.78
2023-05-23T10:31:49.606Z,4.68
2023-05-23T10:34:34.621Z,4.70
2023-05-23T10:37:04.260Z,4.43
2023-05-23T10:39:44.399Z,4.13
2023-05-23T10:42:56.144Z,3.90
2023-05-23T10:45:24.611Z,4.45
2023-05-23T10:47:53.056Z,4.35
2023-05-23T10:50:34.314Z,4.40
2023-05-23T10:53:03.189Z,4.40
2023-05-23T10:55:34.990Z,4.63
2023-05-23T10:58:23.115Z,4.50
2023-05-23T11:00:59.573Z,4.53
2023-05-23T11:03:48.744Z,4.05
2023-05-23T11:06:32.832Z,4.15
2023-05-23T11:09:07.230Z,4.30
2023-05-23T11:11:54.229Z,4.28
2023-05-23T11:14:37.975Z,4.68
2023-05-23T11:17:13.903Z,4.68
2023-05-23T11:19:55.204Z,4.30
2023-05-23T11:22:27.302Z,4.07
2023-05-23T11:24:55.208Z,4.57
2023-05-23T11:27:34.555Z,5.38
2023-05-23T11:30:07.126Z,5.00
2023-05-23T11:32:34.140Z,4.18
2023-05-23T11:35:03.354Z,4.90
2023-05-23T11:37:31.152Z,4.75
2023-05-23T11:39:58.549Z,5.15
2023-05-23T11:42:25.973Z,6.00
2023-05-23T11:44:53.197Z,6.38
2023-05-23T11:47:20.403Z,5.93
2023-05-23T11:49:47.908Z,6.60
2023-05-23T11:52:15.326Z,6.18
2023-05-23T11:54:43.468Z,4.85
2023-05-23T11:57:11.243Z,4.97
2023-05-23T11:59:38.567Z,5.55
2023-05-23T12:02:07.948Z,5.05
2023-05-23T12:04:37.333Z,5.70
2023-05-23T12:07:07.710Z,4.75
2023-05-23T12:09:44.710Z,4.07
2023-05-23T12:12:13.145Z,4.30
2023-05-23T12:14:45.027Z,4.60
2023-05-23T12:17:13.126Z,4.07
2023-05-23T12:19:45.437Z,3.97
2023-05-23T12:22:12.241Z,4.18
2023-05-23T12:24:49.341Z,3.38
2023-05-23T12:27:18.604Z,3.53
2023-05-23T12:29:53.851Z,3.50
2023-05-23T12:32:24.895Z,2.83
2023-05-23T12:34:51.683Z,2.85
2023-05-23T12:37:20.563Z,2.75
2023-05-23T12:39:47.836Z,3.03
2023-05-23T12:42:14.641Z,2.80
2023-05-23T12:44:43.620Z,2.80
2023-05-23T12:47:10.791Z,2.67
2023-05-23T12:49:38.193Z,2.63
2023-05-23T12:52:05.048Z,2.42
2023-05-23T12:54:32.124Z,2.20
2023-05-23T12:56:59.007Z,1.67
2023-05-23T12:59:25.951Z,1.75
2023-05-23T13:01:52.793Z,1.80
2023-05-23T13:04:19.841Z,1.50
2023-05-23T13:06:46.807Z,1.00
2023-05-23T13:09:13.859Z,0.85
2023-05-23T13:11:41.499Z,1.20
2023-05-23T13:14:08.450Z,0.95
2023-05-23T13:16:36.391Z,1.10
2023-05-23T13:19:03.515Z,1.08
2023-05-23T13:21:31.665Z,1.17
2023-05-23T13:23:58.439Z,0.88
2023-05-23T13:26:26.159Z,1.42
2023-05-23T13:28:53.089Z,1.55
2023-05-23T13:31:19.998Z,1.50
2023-05-23T13:33:46.862Z,1.83
2023-05-23T13:36:13.674Z,1.75
2023-05-23T13:38:40.440Z,1.38
2023-05-23T13:41:07.943Z,1.70
2023-05-23T13:43:35.167Z,1.35
2023-05-23T13:46:03.103Z,1.50
2023-05-23T13:48:29.889Z,1.40
2023-05-23T13:50:56.970Z,1.50
2023-05-23T13:53:24.250Z,1.45
2023-05-23T13:55:51.093Z,2.00
2023-05-23T13:58:17.930Z,2.10
2023-05-23T14:00:45.060Z,2.55
2023-05-23T14:03:12.423Z,2.35
2023-05-23T14:05:39.326Z,3.08
2023-05-23T14:08:06.487Z,2.47
2023-05-23T14:10:33.537Z,2.85
2023-05-23T14:13:00.822Z,2.75
2023-05-23T14:15:28.284Z,3.88
2023-05-23T14:17:56.282Z,2.80
2023-05-23T14:20:23.852Z,2.78
2023-05-23T14:22:51.455Z,3.00
2023-05-23T14:25:19.302Z,2.75
2023-05-23T14:27:46.704Z,3.08
2023-05-23T14:30:13.830Z,3.00
2023-05-23T14:32:41.200Z,3.25
2023-05-23T14:35:10.742Z,2.72
2023-05-23T14:37:37.818Z,2.88
2023-05-23T14:40:06.608Z,2.75
2023-05-23T14:42:33.691Z,2.70
2023-05-23T14:45:00.383Z,2.95
2023-05-23T14:47:27.268Z,2.65
2023-05-23T14:49:54.094Z,2.90
2023-05-23T14:52:20.949Z,2.92
2023-05-23T14:54:48.804Z,2.83
2023-05-23T14:57:15.737Z,3.00
2023-05-23T14:59:42.618Z,3.10
2023-05-23T15:02:09.516Z,2.58
2023-05-23T15:04:37.303Z,3.10
2023-05-23T15:07:04.499Z,2.95
2023-05-23T15:09:31.342Z,2.75
2023-05-23T15:11:58.377Z,3.00
2023-05-23T15:14:29.707Z,3.25
2023-05-23T15:16:56.674Z,3.25
2023-05-23T15:19:23.744Z,3.15
2023-05-23T15:21:51.804Z,3.08
2023-05-23T15:24:19.072Z,3.20
2023-05-23T15:26:45.939Z,2.53
2023-05-23T15:29:14.495Z,2.42
2023-05-23T15:31:41.595Z,2.63
2023-05-23T15:34:08.556Z,3.17
2023-05-23T15:36:36.547Z,2.85
2023-05-23T15:39:04.855Z,2.65
2023-05-23T15:41:31.935Z,2.88
2023-05-23T15:43:58.883Z,2.53
2023-05-23T15:46:25.974Z,2.95
2023-05-23T15:48:52.839Z,2.25
2023-05-23T15:51:19.594Z,2.30
2023-05-23T15:54:00.120Z,2.70
2023-05-23T15:56:28.201Z,2.33
2023-05-23T15:58:55.540Z,2.20
2023-05-23T16:01:22.683Z,2.45
2023-05-23T16:03:49.800Z,2.40
2023-05-23T16:06:17.076Z,2.33
2023-05-23T16:08:43.879Z,3.83
2023-05-23T16:11:10.579Z,2.40
2023-05-23T16:13:37.502Z,2.50
2023-05-23T16:16:04.644Z,2.15
2023-05-23T16:18:31.703Z,2.78
2023-05-23T16:20:58.577Z,2.55
2023-05-23T16:23:25.844Z,1.90
2023-05-23T16:25:53.233Z,2.20
2023-05-23T16:28:20.914Z,1.90
2023-05-23T16:30:47.801Z,2.10
2023-05-23T16:33:14.698Z,2.30
2023-05-23T16:35:41.781Z,2.17
2023-05-23T16:38:08.869Z,2.40
2023-05-23T16:40:35.664Z,2.47
2023-05-23T16:43:03.879Z,2.15
2023-05-23T16:45:30.793Z,2.25
2023-05-23T16:47:57.614Z,2.10
2023-05-23T16:50:24.519Z,2.22
2023-05-23T16:52:51.245Z,2.25
2023-05-23T16:55:18.000Z,1.95
2023-05-23T16:57:44.750Z,2.53
2023-05-23T17:00:12.456Z,2.00
2023-05-23T17:02:39.404Z,2.00
2023-05-23T17:05:06.684Z,1.73
2023-05-23T17:07:33.458Z,1.92
2023-05-23T17:10:00.605Z,2.20
2023-05-23T17:12:27.634Z,2.20
2023-05-23T17:14:54.576Z,2.22
2023-05-23T17:17:21.485Z,2.13
2023-05-23T17:19:48.760Z,1.95
2023-05-23T17:22:15.939Z,2.10
2023-05-23T17:24:42.757Z,2.40
2023-05-23T17:27:09.542Z,2.13
2023-05-23T17:29:36.532Z,2.10
2023-05-23T17:32:03.427Z,2.22
2023-05-23T17:34:30.315Z,2.67
2023-05-23T17:36:57.185Z,1.90
2023-05-23T17:39:24.222Z,2.45
2023-05-23T17:41:51.424Z,2.25
2023-05-23T17:44:18.352Z,2.35
2023-05-23T17:46:45.487Z,2.42
2023-05-23T17:49:12.537Z,1.95
2023-05-23T17:51:39.455Z,2.00
2023-05-23T17:54:06.566Z,1.88
2023-05-23T17:56:33.495Z,1.85
2023-05-23T17:59:04.134Z,1.90
2023-05-23T18:01:31.491Z,2.05
2023-05-23T18:03:58.491Z,2.15
2023-05-23T18:06:27.328Z,1.88
2023-05-23T18:08:57.240Z,1.67
2023-05-23T18:11:24.535Z,2.10
2023-05-23T18:13:51.581Z,1.73
2023-05-23T18:16:18.665Z,2.35
2023-05-23T18:18:45.816Z,1.95
2023-05-23T18:21:12.734Z,1.70
2023-05-23T18:23:39.588Z,1.80
2023-05-23T18:26:06.686Z,1.80
2023-05-23T18:28:33.823Z,2.47
2023-05-23T18:31:01.678Z,1.95
2023-05-23T18:33:28.773Z,2.35
2023-05-23T18:35:55.791Z,2.13
2023-05-23T18:38:22.860Z,2.05
2023-05-23T18:40:49.728Z,2.10
2023-05-23T18:43:17.490Z,1.90
2023-05-23T18:45:44.723Z,1.90
2023-05-23T18:48:11.717Z,2.70
2023-05-23T18:50:38.855Z,1.70
2023-05-23T18:53:06.213Z,2.53
2023-05-23T18:55:33.026Z,1.70
2023-05-23T18:58:01.297Z,1.80
2023-05-23T19:00:28.191Z,2.10
2023-05-23T19:02:55.399Z,1.55
2023-05-23T19:05:22.325Z,1.95
2023-05-23T19:07:49.046Z,2.05
2023-05-23T19:10:15.919Z,1.65
2023-05-23T19:12:42.841Z,1.88
2023-05-23T19:15:10.707Z,1.70
2023-05-23T19:17:38.673Z,2.40
2023-05-23T19:20:06.278Z,1.40
2023-05-23T19:22:49.776Z,2.72
2023-05-23T19:25:17.482Z,1.80
2023-05-23T19:27:44.275Z,2.03
2023-05-23T19:30:11.648Z,1.48
2023-05-23T19:32:38.501Z,1.60
2023-05-23T19:35:06.023Z,1.83
2023-05-23T19:37:32.894Z,1.35
2023-05-23T19:40:00.717Z,1.40
2023-05-23T19:42:27.645Z,1.77
2023-05-23T19:44:54.718Z,1.75
2023-05-23T19:47:21.542Z,1.63
2023-05-23T19:49:48.343Z,1.90
2023-05-23T19:52:15.240Z,1.98
2023-05-23T19:54:42.199Z,1.90
2023-05-23T19:57:08.976Z,1.77
2023-05-23T19:59:35.815Z,2.00
2023-05-23T20:02:02.586Z,1.60
2023-05-23T20:04:29.506Z,2.92
2023-05-23T20:06:56.622Z,1.80
2023-05-23T20:09:23.544Z,2.05
2023-05-23T20:11:50.446Z,1.95
2023-05-23T20:14:17.342Z,2.30
2023-05-23T20:16:44.219Z,2.15
2023-05-23T20:19:11.123Z,1.65
2023-05-23T20:21:38.247Z,2.35
2023-05-23T20:24:05.217Z,2.00
2023-05-23T20:26:31.907Z,2.45
2023-05-23T20:28:59.894Z,2.03
2023-05-23T20:31:26.742Z,2.08
2023-05-23T20:33:53.490Z,2.90
2023-05-23T20:36:20.978Z,1.95
2023-05-23T20:38:47.896Z,1.92
2023-05-23T20:41:14.891Z,2.03
2023-05-23T20:43:41.831Z,1.60
2023-05-23T20:46:11.855Z,2.00
2023-05-23T20:48:38.769Z,1.52
2023-05-23T20:51:07.460Z,1.98
2023-05-23T20:53:35.088Z,1.65
2023-05-23T20:56:02.781Z,1.85
2023-05-23T20:58:29.558Z,2.00
2023-05-23T21:00:57.539Z,2.00
2023-05-23T21:03:24.388Z,1.67
2023-05-23T21:05:51.270Z,1.85
2023-05-23T21:08:18.087Z,2.20
2023-05-23T21:10:48.074Z,1.88
2023-05-23T21:13:16.908Z,2.05
2023-05-23T21:15:43.902Z,1.95
2023-05-23T21:18:10.851Z,2.00
2023-05-23T21:20:37.765Z,1.83
2023-05-23T21:23:04.558Z,1.65
2023-05-23T21:25:31.325Z,1.55
2023-05-23T21:27:58.020Z,2.25
2023-05-23T21:30:26.382Z,1.90
2023-05-23T21:32:53.364Z,2.15
2023-05-23T21:35:20.177Z,1.83
2023-05-23T21:37:46.968Z,2.13
2023-05-23T21:40:13.720Z,1.60
2023-05-23T21:42:40.710Z,2.10
2023-05-23T21:45:08.214Z,1.60
2023-05-23T21:47:35.028Z,2.08
2023-05-23T21:50:04.113Z,1.70
2023-05-23T21:52:31.200Z,1.42
2023-05-23T21:54:58.043Z,1.73
2023-05-23T21:57:24.916Z,1.27
2023-05-23T21:59:51.632Z,1.63
2023-05-23T22:02:18.497Z,2.55
2023-05-23T22:04:46.141Z,1.58
2023-05-23T22:07:12.981Z,2.05
2023-05-23T22:09:39.745Z,1.77
2023-05-23T22:12:06.770Z,1.70
2023-05-23T22:14:33.670Z,2.42
2023-05-23T22:17:02.375Z,1.83
2023-05-23T22:19:30.058Z,1.45
2023-05-23T22:21:56.979Z,1.52
2023-05-23T22:24:23.881Z,1.90
2023-05-23T22:26:51.007Z,1.52
2023-05-23T22:29:17.744Z,1.90
2023-05-23T22:34:11.509Z,1.92
2023-05-23T22:36:39.014Z,1.92
2023-05-23T22:39:06.106Z,2.05
2023-05-23T22:41:33.276Z,1.83
2023-05-23T22:44:00.160Z,2.28
2023-05-23T22:46:27.049Z,2.55
2023-05-23T22:48:55.211Z,2.33
2023-05-23T22:51:22.268Z,1.90
2023-05-23T22:53:49.219Z,2.13
2023-05-23T22:56:16.895Z,1.90
2023-05-23T22:58:43.930Z,1.70
2023-05-23T23:01:10.874Z,2.45
2023-05-23T23:03:37.685Z,2.17
2023-05-23T23:06:06.304Z,1.85
2023-05-23T23:08:33.440Z,2.00
2023-05-23T23:11:00.293Z,2.63
2023-05-23T23:13:27.097Z,2.15
2023-05-23T23:15:54.357Z,1.88
2023-05-23T23:18:21.232Z,1.77
2023-05-23T23:20:48.373Z,1.88
2023-05-23T23:23:15.296Z,2.17
2023-05-23T23:25:42.021Z,2.10
2023-05-23T23:28:08.848Z,2.28
2023-05-23T23:30:35.604Z,1.80
2023-05-23T23:33:02.563Z,2.22
2023-05-23T23:35:29.319Z,2.40
2023-05-23T23:37:56.177Z,2.20
2023-05-23T23:40:23.031Z,2.30
2023-05-23T23:42:49.729Z,2.80
2023-05-23T23:45:16.712Z,2.63
2023-05-23T23:47:46.568Z,2.55
2023-05-23T23:50:16.242Z,2.03
2023-05-23T23:52:43.050Z,2.45
2023-05-23T23:55:10.047Z,2.08
2023-05-23T23:57:36.812Z,2.08
